sensor_id;sensor_type;location;lat;lon;timestamp;P1;durP1;ratioP1;P2;durP2;ratioP2
66425;SDS011;53237;46.158;14.604;2023-07-20T00:01:57;1.80;;;1.35;;
66425;SDS011;53237;46.158;14.604;2023-07-20T00:04:23;3.28;;;1.40;;
66425;SDS011;53237;46.158;14.604;2023-07-20T00:06:49;2.08;;;1.67;;
66425;SDS011;53237;46.158;14.604;2023-07-20T00:09:15;1.40;;;1.30;;
66425;SDS011;53237;46.158;14.604;2023-07-20T00:11:47;1.40;;;1.30;;
66425;SDS011;53237;46.158;14.604;2023-07-20T00:14:13;2.35;;;1.92;;
66425;SDS011;53237;46.158;14.604;2023-07-20T00:16:39;1.42;;;1.33;;
66425;SDS011;53237;46.158;14.604;2023-07-20T00:19:05;3.20;;;1.92;;
66425;SDS011;53237;46.158;14.604;2023-07-20T00:21:31;5.82;;;2.45;;
66425;SDS011;53237;46.158;14.604;2023-07-20T00:23:58;1.88;;;1.60;;
66425;SDS011;53237;46.158;14.604;2023-07-20T00:26:23;1.38;;;1.27;;
66425;SDS011;53237;46.158;14.604;2023-07-20T00:28:49;1.60;;;1.42;;
66425;SDS011;53237;46.158;14.604;2023-07-20T00:31:16;2.13;;;1.23;;
66425;SDS011;53237;46.158;14.604;2023-07-20T00:33:42;2.35;;;1.30;;
66425;SDS011;53237;46.158;14.604;2023-07-20T00:36:08;1.40;;;1.30;;
66425;SDS011;53237;46.158;14.604;2023-07-20T00:38:34;2.38;;;1.73;;
66425;SDS011;53237;46.158;14.604;2023-07-20T00:41:00;1.73;;;1.63;;
66425;SDS011;53237;46.158;14.604;2023-07-20T00:43:26;1.30;;;1.20;;
66425;SDS011;53237;46.158;14.604;2023-07-20T00:45:52;1.63;;;1.52;;
66425;SDS011;53237;46.158;14.604;2023-07-20T00:48:19;2.75;;;2.00;;
66425;SDS011;53237;46.158;14.604;2023-07-20T00:50:45;2.58;;;1.70;;
66425;SDS011;53237;46.158;14.604;2023-07-20T00:53:13;2.15;;;1.25;;
66425;SDS011;53237;46.158;14.604;2023-07-20T00:55:39;2.13;;;1.50;;
66425;SDS011;53237;46.158;14.604;2023-07-20T00:58:05;1.67;;;1.45;;
66425;SDS011;53237;46.158;14.604;2023-07-20T01:00:32;1.63;;;1.50;;
66425;SDS011;53237;46.158;14.604;2023-07-20T01:02:58;1.73;;;1.58;;
66425;SDS011;53237;46.158;14.604;2023-07-20T01:05:31;2.08;;;1.95;;
66425;SDS011;53237;46.158;14.604;2023-07-20T01:07:59;2.35;;;1.40;;
66425;SDS011;53237;46.158;14.604;2023-07-20T01:10:36;1.50;;;1.20;;
66425;SDS011;53237;46.158;14.604;2023-07-20T01:13:06;1.75;;;1.40;;
66425;SDS011;53237;46.158;14.604;2023-07-20T01:15:35;1.63;;;1.52;;
66425;SDS011;53237;46.158;14.604;2023-07-20T01:18:01;1.48;;;1.38;;
66425;SDS011;53237;46.158;14.604;2023-07-20T01:20:29;1.50;;;1.40;;
66425;SDS011;53237;46.158;14.604;2023-07-20T01:30:43;1.40;;;1.30;;
66425;SDS011;53237;46.158;14.604;2023-07-20T01:33:14;1.25;;;1.15;;
66425;SDS011;53237;46.158;14.604;2023-07-20T01:35:41;3.15;;;1.80;;
66425;SDS011;53237;46.158;14.604;2023-07-20T01:38:10;2.40;;;1.85;;
66425;SDS011;53237;46.158;14.604;2023-07-20T01:40:37;3.50;;;1.65;;
66425;SDS011;53237;46.158;14.604;2023-07-20T01:43:03;4.97;;;2.28;;
66425;SDS011;53237;46.158;14.604;2023-07-20T01:45:29;2.33;;;2.10;;
66425;SDS011;53237;46.158;14.604;2023-07-20T01:47:55;2.78;;;2.10;;
66425;SDS011;53237;46.158;14.604;2023-07-20T01:50:21;1.70;;;1.60;;
66425;SDS011;53237;46.158;14.604;2023-07-20T01:52:47;3.35;;;2.22;;
66425;SDS011;53237;46.158;14.604;2023-07-20T01:55:13;3.55;;;2.28;;
66425;SDS011;53237;46.158;14.604;2023-07-20T01:57:39;4.43;;;2.63;;
66425;SDS011;53237;46.158;14.604;2023-07-20T02:00:05;1.95;;;1.85;;
66425;SDS011;53237;46.158;14.604;2023-07-20T02:02:32;2.80;;;2.33;;
66425;SDS011;53237;46.158;14.604;2023-07-20T02:04:57;2.65;;;2.45;;
66425;SDS011;53237;46.158;14.604;2023-07-20T02:07:23;3.10;;;2.80;;
66425;SDS011;53237;46.158;14.604;2023-07-20T02:09:49;4.60;;;2.70;;
66425;SDS011;53237;46.158;14.604;2023-07-20T02:12:15;3.30;;;2.72;;
66425;SDS011;53237;46.158;14.604;2023-07-20T02:14:41;3.00;;;2.35;;
66425;SDS011;53237;46.158;14.604;2023-07-20T02:17:07;4.32;;;2.90;;
66425;SDS011;53237;46.158;14.604;2023-07-20T02:19:35;2.50;;;2.30;;
66425;SDS011;53237;46.158;14.604;2023-07-20T02:22:01;2.22;;;2.03;;
66425;SDS011;53237;46.158;14.604;2023-07-20T02:24:27;3.10;;;2.30;;
66425;SDS011;53237;46.158;14.604;2023-07-20T02:26:53;3.45;;;2.65;;
66425;SDS011;53237;46.158;14.604;2023-07-20T02:29:19;3.50;;;2.50;;
66425;SDS011;53237;46.158;14.604;2023-07-20T02:31:45;6.07;;;2.85;;
66425;SDS011;53237;46.158;14.604;2023-07-20T02:34:11;3.47;;;2.38;;
66425;SDS011;53237;46.158;14.604;2023-07-20T02:36:37;2.88;;;2.30;;
66425;SDS011;53237;46.158;14.604;2023-07-20T02:39:03;2.63;;;2.35;;
66425;SDS011;53237;46.158;14.604;2023-07-20T02:41:32;2.17;;;1.65;;
66425;SDS011;53237;46.158;14.604;2023-07-20T02:43:59;2.78;;;1.85;;
66425;SDS011;53237;46.158;14.604;2023-07-20T02:46:25;1.98;;;1.77;;
66425;SDS011;53237;46.158;14.604;2023-07-20T02:48:51;2.10;;;1.90;;
66425;SDS011;53237;46.158;14.604;2023-07-20T02:51:17;1.60;;;1.50;;
66425;SDS011;53237;46.158;14.604;2023-07-20T02:53:43;2.10;;;1.90;;
66425;SDS011;53237;46.158;14.604;2023-07-20T02:56:09;2.85;;;1.95;;
66425;SDS011;53237;46.158;14.604;2023-07-20T02:58:35;1.60;;;1.50;;
66425;SDS011;53237;46.158;14.604;2023-07-20T03:01:04;1.98;;;1.77;;
66425;SDS011;53237;46.158;14.604;2023-07-20T03:03:30;1.58;;;1.42;;
66425;SDS011;53237;46.158;14.604;2023-07-20T03:05:55;1.88;;;1.60;;
66425;SDS011;53237;46.158;14.604;2023-07-20T03:08:22;1.70;;;1.60;;
66425;SDS011;53237;46.158;14.604;2023-07-20T03:10:49;2.25;;;1.80;;
66425;SDS011;53237;46.158;14.604;2023-07-20T03:13:15;1.92;;;1.80;;
66425;SDS011;53237;46.158;14.604;2023-07-20T03:15:41;2.35;;;2.15;;
66425;SDS011;53237;46.158;14.604;2023-07-20T03:18:07;2.85;;;1.70;;
66425;SDS011;53237;46.158;14.604;2023-07-20T03:20:34;1.80;;;1.50;;
66425;SDS011;53237;46.158;14.604;2023-07-20T03:23:01;1.92;;;1.75;;
66425;SDS011;53237;46.158;14.604;2023-07-20T03:25:27;1.77;;;1.65;;
66425;SDS011;53237;46.158;14.604;2023-07-20T03:27:53;3.15;;;1.90;;
66425;SDS011;53237;46.158;14.604;2023-07-20T03:30:19;1.70;;;1.60;;
66425;SDS011;53237;46.158;14.604;2023-07-20T03:32:45;1.75;;;1.65;;
66425;SDS011;53237;46.158;14.604;2023-07-20T03:35:11;1.80;;;1.70;;
66425;SDS011;53237;46.158;14.604;2023-07-20T03:37:37;1.88;;;1.73;;
66425;SDS011;53237;46.158;14.604;2023-07-20T03:40:03;2.17;;;1.83;;
66425;SDS011;53237;46.158;14.604;2023-07-20T03:42:30;1.73;;;1.63;;
66425;SDS011;53237;46.158;14.604;2023-07-20T03:44:56;1.92;;;1.65;;
66425;SDS011;53237;46.158;14.604;2023-07-20T03:47:22;1.50;;;1.40;;
66425;SDS011;53237;46.158;14.604;2023-07-20T03:49:49;2.05;;;1.85;;
66425;SDS011;53237;46.158;14.604;2023-07-20T03:52:15;2.08;;;1.85;;
66425;SDS011;53237;46.158;14.604;2023-07-20T03:54:41;1.85;;;1.75;;
66425;SDS011;53237;46.158;14.604;2023-07-20T03:57:07;2.78;;;2.13;;
66425;SDS011;53237;46.158;14.604;2023-07-20T03:59:34;1.98;;;1.77;;
66425;SDS011;53237;46.158;14.604;2023-07-20T04:02:00;3.00;;;2.33;;
66425;SDS011;53237;46.158;14.604;2023-07-20T04:04:26;2.30;;;2.00;;
66425;SDS011;53237;46.158;14.604;2023-07-20T04:06:53;2.35;;;1.50;;
66425;SDS011;53237;46.158;14.604;2023-07-20T04:09:19;2.85;;;1.63;;
66425;SDS011;53237;46.158;14.604;2023-07-20T04:11:45;2.42;;;1.85;;
66425;SDS011;53237;46.158;14.604;2023-07-20T04:14:11;1.90;;;1.80;;
66425;SDS011;53237;46.158;14.604;2023-07-20T04:16:37;1.77;;;1.67;;
66425;SDS011;53237;46.158;14.604;2023-07-20T04:19:03;1.40;;;1.30;;
66425;SDS011;53237;46.158;14.604;2023-07-20T04:21:29;1.77;;;1.67;;
66425;SDS011;53237;46.158;14.604;2023-07-20T04:23:55;2.22;;;1.50;;
66425;SDS011;53237;46.158;14.604;2023-07-20T04:26:21;1.90;;;1.80;;
66425;SDS011;53237;46.158;14.604;2023-07-20T04:28:47;2.53;;;1.75;;
66425;SDS011;53237;46.158;14.604;2023-07-20T04:31:15;1.70;;;1.55;;
66425;SDS011;53237;46.158;14.604;2023-07-20T04:33:41;1.77;;;1.67;;
66425;SDS011;53237;46.158;14.604;2023-07-20T04:36:07;2.28;;;1.80;;
66425;SDS011;53237;46.158;14.604;2023-07-20T04:38:34;1.73;;;1.60;;
66425;SDS011;53237;46.158;14.604;2023-07-20T04:41:00;1.95;;;1.73;;
66425;SDS011;53237;46.158;14.604;2023-07-20T04:43:26;1.95;;;1.80;;
66425;SDS011;53237;46.158;14.604;2023-07-20T04:45:53;3.58;;;1.80;;
66425;SDS011;53237;46.158;14.604;2023-07-20T04:48:19;1.83;;;1.63;;
66425;SDS011;53237;46.158;14.604;2023-07-20T04:50:45;2.28;;;2.08;;
66425;SDS011;53237;46.158;14.604;2023-07-20T04:53:11;2.28;;;2.08;;
66425;SDS011;53237;46.158;14.604;2023-07-20T04:55:38;1.90;;;1.67;;
66425;SDS011;53237;46.158;14.604;2023-07-20T04:58:04;2.47;;;2.28;;
66425;SDS011;53237;46.158;14.604;2023-07-20T05:00:32;1.90;;;1.80;;
66425;SDS011;53237;46.158;14.604;2023-07-20T05:02:58;1.90;;;1.73;;
66425;SDS011;53237;46.158;14.604;2023-07-20T05:05:24;2.17;;;1.92;;
66425;SDS011;53237;46.158;14.604;2023-07-20T05:07:50;1.88;;;1.75;;
66425;SDS011;53237;46.158;14.604;2023-07-20T05:10:17;2.03;;;1.92;;
66425;SDS011;53237;46.158;14.604;2023-07-20T05:12:43;2.13;;;1.92;;
66425;SDS011;53237;46.158;14.604;2023-07-20T05:15:09;1.92;;;1.80;;
66425;SDS011;53237;46.158;14.604;2023-07-20T05:17:35;4.10;;;2.97;;
66425;SDS011;53237;46.158;14.604;2023-07-20T05:20:01;7.30;;;5.25;;
66425;SDS011;53237;46.158;14.604;2023-07-20T05:22:29;6.97;;;4.90;;
66425;SDS011;53237;46.158;14.604;2023-07-20T05:24:55;7.10;;;5.10;;
66425;SDS011;53237;46.158;14.604;2023-07-20T05:27:21;5.47;;;4.20;;
66425;SDS011;53237;46.158;14.604;2023-07-20T05:29:47;4.25;;;3.85;;
66425;SDS011;53237;46.158;14.604;2023-07-20T05:32:13;2.95;;;2.50;;
66425;SDS011;53237;46.158;14.604;2023-07-20T05:34:39;2.55;;;2.35;;
66425;SDS011;53237;46.158;14.604;2023-07-20T05:37:05;2.50;;;2.30;;
66425;SDS011;53237;46.158;14.604;2023-07-20T05:39:32;3.85;;;2.28;;
66425;SDS011;53237;46.158;14.604;2023-07-20T05:41:58;2.10;;;2.00;;
66425;SDS011;53237;46.158;14.604;2023-07-20T05:44:24;2.50;;;2.30;;
66425;SDS011;53237;46.158;14.604;2023-07-20T05:46:50;2.28;;;1.90;;
66425;SDS011;53237;46.158;14.604;2023-07-20T05:49:16;3.15;;;2.55;;
66425;SDS011;53237;46.158;14.604;2023-07-20T05:51:42;4.45;;;2.55;;
66425;SDS011;53237;46.158;14.604;2023-07-20T05:54:08;3.72;;;2.80;;
66425;SDS011;53237;46.158;14.604;2023-07-20T05:56:34;3.42;;;3.00;;
66425;SDS011;53237;46.158;14.604;2023-07-20T05:59:00;3.40;;;2.60;;
66425;SDS011;53237;46.158;14.604;2023-07-20T06:01:26;2.75;;;2.30;;
66425;SDS011;53237;46.158;14.604;2023-07-20T06:03:53;3.58;;;2.90;;
66425;SDS011;53237;46.158;14.604;2023-07-20T06:06:19;3.75;;;2.70;;
66425;SDS011;53237;46.158;14.604;2023-07-20T06:08:45;2.90;;;2.70;;
66425;SDS011;53237;46.158;14.604;2023-07-20T06:11:11;4.10;;;2.60;;
66425;SDS011;53237;46.158;14.604;2023-07-20T06:13:37;3.33;;;2.60;;
66425;SDS011;53237;46.158;14.604;2023-07-20T06:16:03;3.42;;;2.50;;
66425;SDS011;53237;46.158;14.604;2023-07-20T06:18:29;3.50;;;2.97;;
66425;SDS011;53237;46.158;14.604;2023-07-20T06:20:55;2.92;;;2.47;;
66425;SDS011;53237;46.158;14.604;2023-07-20T06:23:21;3.00;;;2.80;;
66425;SDS011;53237;46.158;14.604;2023-07-20T06:25:47;4.90;;;4.40;;
66425;SDS011;53237;46.158;14.604;2023-07-20T06:28:14;4.90;;;4.13;;
66425;SDS011;53237;46.158;14.604;2023-07-20T06:30:40;3.00;;;2.80;;
66425;SDS011;53237;46.158;14.604;2023-07-20T06:33:06;2.80;;;2.60;;
66425;SDS011;53237;46.158;14.604;2023-07-20T06:35:33;3.10;;;2.53;;
66425;SDS011;53237;46.158;14.604;2023-07-20T06:37:59;4.88;;;3.92;;
66425;SDS011;53237;46.158;14.604;2023-07-20T06:40:26;3.78;;;3.17;;
66425;SDS011;53237;46.158;14.604;2023-07-20T06:42:52;3.13;;;2.83;;
66425;SDS011;53237;46.158;14.604;2023-07-20T06:45:18;3.03;;;2.50;;
66425;SDS011;53237;46.158;14.604;2023-07-20T06:47:44;3.05;;;2.75;;
66425;SDS011;53237;46.158;14.604;2023-07-20T06:50:10;3.55;;;3.13;;
66425;SDS011;53237;46.158;14.604;2023-07-20T06:52:36;4.30;;;2.58;;
66425;SDS011;53237;46.158;14.604;2023-07-20T06:55:02;3.05;;;2.70;;
66425;SDS011;53237;46.158;14.604;2023-07-20T06:57:28;4.13;;;3.38;;
66425;SDS011;53237;46.158;14.604;2023-07-20T06:59:54;5.35;;;3.50;;
66425;SDS011;53237;46.158;14.604;2023-07-20T07:02:20;3.17;;;2.88;;
66425;SDS011;53237;46.158;14.604;2023-07-20T07:04:46;3.13;;;2.83;;
66425;SDS011;53237;46.158;14.604;2023-07-20T07:07:16;3.30;;;3.00;;
66425;SDS011;53237;46.158;14.604;2023-07-20T07:09:42;5.75;;;3.47;;
66425;SDS011;53237;46.158;14.604;2023-07-20T07:12:08;6.00;;;3.63;;
66425;SDS011;53237;46.158;14.604;2023-07-20T07:14:34;5.85;;;4.38;;
66425;SDS011;53237;46.158;14.604;2023-07-20T07:17:00;4.40;;;3.03;;
66425;SDS011;53237;46.158;14.604;2023-07-20T07:19:26;3.20;;;2.95;;
66425;SDS011;53237;46.158;14.604;2023-07-20T07:21:53;2.78;;;2.58;;
66425;SDS011;53237;46.158;14.604;2023-07-20T07:24:19;6.10;;;4.80;;
66425;SDS011;53237;46.158;14.604;2023-07-20T07:26:45;4.05;;;3.50;;
66425;SDS011;53237;46.158;14.604;2023-07-20T07:29:11;3.33;;;3.03;;
66425;SDS011;53237;46.158;14.604;2023-07-20T07:31:37;5.40;;;3.20;;
66425;SDS011;53237;46.158;14.604;2023-07-20T07:34:03;6.30;;;3.40;;
66425;SDS011;53237;46.158;14.604;2023-07-20T07:36:30;7.75;;;3.67;;
66425;SDS011;53237;46.158;14.604;2023-07-20T07:38:56;4.93;;;3.50;;
66425;SDS011;53237;46.158;14.604;2023-07-20T07:41:22;3.55;;;3.03;;
66425;SDS011;53237;46.158;14.604;2023-07-20T07:43:48;4.03;;;3.63;;
66425;SDS011;53237;46.158;14.604;2023-07-20T07:46:14;4.70;;;3.22;;
66425;SDS011;53237;46.158;14.604;2023-07-20T07:48:41;5.45;;;3.90;;
66425;SDS011;53237;46.158;14.604;2023-07-20T07:51:07;3.85;;;3.22;;
66425;SDS011;53237;46.158;14.604;2023-07-20T07:53:34;5.25;;;3.53;;
66425;SDS011;53237;46.158;14.604;2023-07-20T07:56:01;4.05;;;3.22;;
66425;SDS011;53237;46.158;14.604;2023-07-20T07:58:28;4.18;;;3.00;;
66425;SDS011;53237;46.158;14.604;2023-07-20T08:00:54;4.03;;;2.70;;
66425;SDS011;53237;46.158;14.604;2023-07-20T08:03:20;3.20;;;2.80;;
66425;SDS011;53237;46.158;14.604;2023-07-20T08:05:49;3.25;;;2.70;;
66425;SDS011;53237;46.158;14.604;2023-07-20T08:08:15;4.68;;;2.92;;
66425;SDS011;53237;46.158;14.604;2023-07-20T08:10:41;2.72;;;2.53;;
66425;SDS011;53237;46.158;14.604;2023-07-20T08:13:07;3.75;;;2.75;;
66425;SDS011;53237;46.158;14.604;2023-07-20T08:15:33;3.25;;;2.92;;
66425;SDS011;53237;46.158;14.604;2023-07-20T08:17:59;4.80;;;3.50;;
66425;SDS011;53237;46.158;14.604;2023-07-20T08:20:25;4.93;;;2.80;;
66425;SDS011;53237;46.158;14.604;2023-07-20T08:22:52;4.93;;;2.85;;
66425;SDS011;53237;46.158;14.604;2023-07-20T08:25:18;2.65;;;2.40;;
66425;SDS011;53237;46.158;14.604;2023-07-20T08:27:44;3.63;;;2.80;;
66425;SDS011;53237;46.158;14.604;2023-07-20T08:30:12;3.15;;;2.90;;
66425;SDS011;53237;46.158;14.604;2023-07-20T08:32:38;2.83;;;2.50;;
66425;SDS011;53237;46.158;14.604;2023-07-20T08:35:04;5.75;;;3.22;;
66425;SDS011;53237;46.158;14.604;2023-07-20T08:37:31;3.72;;;2.20;;
66425;SDS011;53237;46.158;14.604;2023-07-20T08:39:57;2.90;;;2.22;;
66425;SDS011;53237;46.158;14.604;2023-07-20T08:42:23;2.00;;;1.88;;
66425;SDS011;53237;46.158;14.604;2023-07-20T08:44:49;2.53;;;2.33;;
66425;SDS011;53237;46.158;14.604;2023-07-20T08:47:16;2.88;;;2.20;;
66425;SDS011;53237;46.158;14.604;2023-07-20T08:49:42;4.68;;;2.30;;
66425;SDS011;53237;46.158;14.604;2023-07-20T08:52:08;4.40;;;2.22;;
66425;SDS011;53237;46.158;14.604;2023-07-20T08:54:34;3.15;;;2.20;;
66425;SDS011;53237;46.158;14.604;2023-07-20T08:57:04;2.70;;;2.25;;
66425;SDS011;53237;46.158;14.604;2023-07-20T08:59:31;3.63;;;2.20;;
66425;SDS011;53237;46.158;14.604;2023-07-20T09:02:00;3.88;;;2.20;;
66425;SDS011;53237;46.158;14.604;2023-07-20T09:04:26;3.20;;;2.30;;
66425;SDS011;53237;46.158;14.604;2023-07-20T09:06:52;2.47;;;2.28;;
66425;SDS011;53237;46.158;14.604;2023-07-20T09:09:18;5.50;;;2.83;;
66425;SDS011;53237;46.158;14.604;2023-07-20T09:11:48;5.57;;;2.20;;
66425;SDS011;53237;46.158;14.604;2023-07-20T09:14:14;2.55;;;1.90;;
66425;SDS011;53237;46.158;14.604;2023-07-20T09:16:51;3.38;;;2.30;;
66425;SDS011;53237;46.158;14.604;2023-07-20T09:19:18;2.40;;;1.75;;
66425;SDS011;53237;46.158;14.604;2023-07-20T09:21:44;2.10;;;1.90;;
66425;SDS011;53237;46.158;14.604;2023-07-20T09:24:11;2.10;;;1.90;;
66425;SDS011;53237;46.158;14.604;2023-07-20T09:26:41;2.08;;;1.88;;
66425;SDS011;53237;46.158;14.604;2023-07-20T09:29:13;1.80;;;1.70;;
66425;SDS011;53237;46.158;14.604;2023-07-20T09:31:39;2.20;;;1.75;;
66425;SDS011;53237;46.158;14.604;2023-07-20T09:34:05;2.15;;;1.70;;
66425;SDS011;53237;46.158;14.604;2023-07-20T09:36:35;1.73;;;1.63;;
66425;SDS011;53237;46.158;14.604;2023-07-20T09:39:02;2.38;;;1.90;;
66425;SDS011;53237;46.158;14.604;2023-07-20T09:41:29;2.20;;;1.60;;
66425;SDS011;53237;46.158;14.604;2023-07-20T09:43:55;2.05;;;1.85;;
66425;SDS011;53237;46.158;14.604;2023-07-20T09:46:21;1.95;;;1.85;;
66425;SDS011;53237;46.158;14.604;2023-07-20T09:48:51;1.63;;;1.52;;
66425;SDS011;53237;46.158;14.604;2023-07-20T09:51:19;1.90;;;1.80;;
66425;SDS011;53237;46.158;14.604;2023-07-20T09:53:46;2.38;;;2.17;;
66425;SDS011;53237;46.158;14.604;2023-07-20T09:56:13;1.85;;;1.55;;
66425;SDS011;53237;46.158;14.604;2023-07-20T09:58:39;2.13;;;1.60;;
66425;SDS011;53237;46.158;14.604;2023-07-20T10:01:05;2.20;;;1.80;;
66425;SDS011;53237;46.158;14.604;2023-07-20T10:03:32;1.98;;;1.83;;
66425;SDS011;53237;46.158;14.604;2023-07-20T10:06:02;3.28;;;1.90;;
66425;SDS011;53237;46.158;14.604;2023-07-20T10:08:29;2.22;;;1.83;;
66425;SDS011;53237;46.158;14.604;2023-07-20T10:10:56;2.03;;;1.90;;
66425;SDS011;53237;46.158;14.604;2023-07-20T10:13:27;1.55;;;1.45;;
66425;SDS011;53237;46.158;14.604;2023-07-20T10:15:54;1.77;;;1.67;;
66425;SDS011;53237;46.158;14.604;2023-07-20T10:18:22;2.28;;;1.70;;
66425;SDS011;53237;46.158;14.604;2023-07-20T10:20:51;1.95;;;1.85;;
66425;SDS011;53237;46.158;14.604;2023-07-20T10:23:17;1.90;;;1.65;;
66425;SDS011;53237;46.158;14.604;2023-07-20T10:25:43;1.90;;;1.70;;
66425;SDS011;53237;46.158;14.604;2023-07-20T10:28:10;1.60;;;1.50;;
66425;SDS011;53237;46.158;14.604;2023-07-20T10:30:36;2.33;;;1.60;;
66425;SDS011;53237;46.158;14.604;2023-07-20T10:33:03;2.03;;;1.83;;
66425;SDS011;53237;46.158;14.604;2023-07-20T10:35:30;1.77;;;1.67;;
66425;SDS011;53237;46.158;14.604;2023-07-20T10:38:02;1.80;;;1.70;;
66425;SDS011;53237;46.158;14.604;2023-07-20T10:40:32;1.70;;;1.60;;
66425;SDS011;53237;46.158;14.604;2023-07-20T10:45:35;1.70;;;1.60;;
66425;SDS011;53237;46.158;14.604;2023-07-20T10:48:14;1.85;;;1.75;;
66425;SDS011;53237;46.158;14.604;2023-07-20T10:50:41;1.80;;;1.70;;
66425;SDS011;53237;46.158;14.604;2023-07-20T10:53:14;2.05;;;1.90;;
66425;SDS011;53237;46.158;14.604;2023-07-20T10:55:41;2.42;;;1.83;;
66425;SDS011;53237;46.158;14.604;2023-07-20T10:58:14;2.13;;;1.80;;
66425;SDS011;53237;46.158;14.604;2023-07-20T11:03:29;1.70;;;1.60;;
66425;SDS011;53237;46.158;14.604;2023-07-20T11:05:56;1.85;;;1.75;;
66425;SDS011;53237;46.158;14.604;2023-07-20T11:08:39;1.90;;;1.80;;
66425;SDS011;53237;46.158;14.604;2023-07-20T11:11:27;2.00;;;1.80;;
66425;SDS011;53237;46.158;14.604;2023-07-20T11:13:57;2.70;;;1.90;;
66425;SDS011;53237;46.158;14.604;2023-07-20T11:16:36;2.28;;;2.15;;
66425;SDS011;53237;46.158;14.604;2023-07-20T11:19:03;2.10;;;1.90;;
66425;SDS011;53237;46.158;14.604;2023-07-20T11:21:36;2.25;;;2.03;;
66425;SDS011;53237;46.158;14.604;2023-07-20T11:24:04;2.53;;;1.90;;
66425;SDS011;53237;46.158;14.604;2023-07-20T11:26:30;2.08;;;1.88;;
66425;SDS011;53237;46.158;14.604;2023-07-20T11:28:56;1.75;;;1.65;;
66425;SDS011;53237;46.158;14.604;2023-07-20T11:31:22;2.00;;;1.90;;
66425;SDS011;53237;46.158;14.604;2023-07-20T11:33:48;1.90;;;1.80;;
66425;SDS011;53237;46.158;14.604;2023-07-20T11:36:14;2.85;;;2.05;;
66425;SDS011;53237;46.158;14.604;2023-07-20T11:38:43;2.17;;;1.92;;
66425;SDS011;53237;46.158;14.604;2023-07-20T11:41:09;2.22;;;2.10;;
66425;SDS011;53237;46.158;14.604;2023-07-20T11:43:35;2.28;;;2.08;;
66425;SDS011;53237;46.158;14.604;2023-07-20T11:46:03;1.80;;;1.70;;
66425;SDS011;53237;46.158;14.604;2023-07-20T11:48:30;1.92;;;1.83;;
66425;SDS011;53237;46.158;14.604;2023-07-20T11:50:56;1.98;;;1.88;;
66425;SDS011;53237;46.158;14.604;2023-07-20T11:53:22;2.00;;;1.80;;
66425;SDS011;53237;46.158;14.604;2023-07-20T11:55:51;3.17;;;2.05;;
66425;SDS011;53237;46.158;14.604;2023-07-20T11:58:18;2.35;;;2.15;;
66425;SDS011;53237;46.158;14.604;2023-07-20T12:00:44;1.95;;;1.85;;
66425;SDS011;53237;46.158;14.604;2023-07-20T12:03:11;3.05;;;2.17;;
66425;SDS011;53237;46.158;14.604;2023-07-20T12:05:38;2.30;;;2.10;;
66425;SDS011;53237;46.158;14.604;2023-07-20T12:08:04;2.10;;;1.98;;
66425;SDS011;53237;46.158;14.604;2023-07-20T12:10:30;3.70;;;2.10;;
66425;SDS011;53237;46.158;14.604;2023-07-20T12:13:02;2.13;;;2.00;;
66425;SDS011;53237;46.158;14.604;2023-07-20T12:15:29;2.40;;;2.20;;
66425;SDS011;53237;46.158;14.604;2023-07-20T12:17:57;2.20;;;2.00;;
66425;SDS011;53237;46.158;14.604;2023-07-20T12:20:26;1.70;;;1.60;;
66425;SDS011;53237;46.158;14.604;2023-07-20T12:22:55;1.83;;;1.73;;
66425;SDS011;53237;46.158;14.604;2023-07-20T12:25:21;2.08;;;1.98;;
66425;SDS011;53237;46.158;14.604;2023-07-20T12:27:47;4.40;;;2.50;;
66425;SDS011;53237;46.158;14.604;2023-07-20T12:30:13;2.15;;;2.00;;
66425;SDS011;53237;46.158;14.604;2023-07-20T12:32:40;2.72;;;2.40;;
66425;SDS011;53237;46.158;14.604;2023-07-20T12:35:06;3.47;;;2.20;;
66425;SDS011;53237;46.158;14.604;2023-07-20T12:37:32;3.17;;;2.35;;
66425;SDS011;53237;46.158;14.604;2023-07-20T12:39:58;3.38;;;2.60;;
66425;SDS011;53237;46.158;14.604;2023-07-20T12:42:24;1.98;;;1.88;;
66425;SDS011;53237;46.158;14.604;2023-07-20T12:44:50;2.20;;;1.98;;
66425;SDS011;53237;46.158;14.604;2023-07-20T12:47:16;2.30;;;2.10;;
66425;SDS011;53237;46.158;14.604;2023-07-20T12:49:43;2.38;;;2.17;;
66425;SDS011;53237;46.158;14.604;2023-07-20T12:52:10;2.00;;;1.90;;
66425;SDS011;53237;46.158;14.604;2023-07-20T12:54:36;2.25;;;2.05;;
66425;SDS011;53237;46.158;14.604;2023-07-20T12:57:02;2.28;;;2.08;;
66425;SDS011;53237;46.158;14.604;2023-07-20T12:59:28;3.22;;;2.47;;
66425;SDS011;53237;46.158;14.604;2023-07-20T13:01:54;2.50;;;2.20;;
66425;SDS011;53237;46.158;14.604;2023-07-20T13:04:20;2.35;;;2.03;;
66425;SDS011;53237;46.158;14.604;2023-07-20T13:06:46;2.80;;;2.60;;
66425;SDS011;53237;46.158;14.604;2023-07-20T13:09:12;2.40;;;2.20;;
66425;SDS011;53237;46.158;14.604;2023-07-20T13:11:38;2.42;;;2.22;;
66425;SDS011;53237;46.158;14.604;2023-07-20T13:14:04;2.53;;;1.90;;
66425;SDS011;53237;46.158;14.604;2023-07-20T13:16:30;3.38;;;2.10;;
66425;SDS011;53237;46.158;14.604;2023-07-20T13:18:56;2.72;;;2.20;;
66425;SDS011;53237;46.158;14.604;2023-07-20T13:21:22;2.15;;;2.00;;
66425;SDS011;53237;46.158;14.604;2023-07-20T13:23:49;2.08;;;1.88;;
66425;SDS011;53237;46.158;14.604;2023-07-20T13:26:15;2.28;;;2.08;;
66425;SDS011;53237;46.158;14.604;2023-07-20T13:28:41;2.30;;;2.10;;
66425;SDS011;53237;46.158;14.604;2023-07-20T13:31:07;2.70;;;2.50;;
66425;SDS011;53237;46.158;14.604;2023-07-20T13:33:35;2.92;;;2.17;;
66425;SDS011;53237;46.158;14.604;2023-07-20T13:36:02;2.20;;;2.00;;
66425;SDS011;53237;46.158;14.604;2023-07-20T13:38:30;3.20;;;2.20;;
66425;SDS011;53237;46.158;14.604;2023-07-20T13:40:56;2.40;;;2.20;;
66425;SDS011;53237;46.158;14.604;2023-07-20T13:43:22;2.42;;;2.00;;
66425;SDS011;53237;46.158;14.604;2023-07-20T13:45:48;1.98;;;1.85;;
66425;SDS011;53237;46.158;14.604;2023-07-20T13:48:14;2.45;;;2.00;;
66425;SDS011;53237;46.158;14.604;2023-07-20T13:50:42;2.45;;;1.90;;
66425;SDS011;53237;46.158;14.604;2023-07-20T13:53:08;2.80;;;2.05;;
66425;SDS011;53237;46.158;14.604;2023-07-20T13:55:34;2.10;;;1.90;;
66425;SDS011;53237;46.158;14.604;2023-07-20T13:58:02;2.17;;;2.00;;
66425;SDS011;53237;46.158;14.604;2023-07-20T14:00:28;3.70;;;2.47;;
66425;SDS011;53237;46.158;14.604;2023-07-20T14:02:57;2.10;;;1.90;;
66425;SDS011;53237;46.158;14.604;2023-07-20T14:05:24;1.75;;;1.63;;
66425;SDS011;53237;46.158;14.604;2023-07-20T14:07:50;2.50;;;2.30;;
66425;SDS011;53237;46.158;14.604;2023-07-20T14:10:16;2.83;;;2.00;;
66425;SDS011;53237;46.158;14.604;2023-07-20T14:12:42;2.85;;;2.00;;
66425;SDS011;53237;46.158;14.604;2023-07-20T14:15:10;2.40;;;2.20;;
66425;SDS011;53237;46.158;14.604;2023-07-20T14:17:36;1.88;;;1.70;;
66425;SDS011;53237;46.158;14.604;2023-07-20T14:20:02;2.30;;;1.80;;
66425;SDS011;53237;46.158;14.604;2023-07-20T14:22:31;2.15;;;1.92;;
66425;SDS011;53237;46.158;14.604;2023-07-20T14:24:57;1.95;;;1.85;;
66425;SDS011;53237;46.158;14.604;2023-07-20T14:27:23;2.20;;;2.00;;
66425;SDS011;53237;46.158;14.604;2023-07-20T14:29:49;2.30;;;2.10;;
66425;SDS011;53237;46.158;14.604;2023-07-20T14:32:15;2.53;;;2.10;;
66425;SDS011;53237;46.158;14.604;2023-07-20T14:34:41;2.60;;;2.20;;
66425;SDS011;53237;46.158;14.604;2023-07-20T14:37:08;3.20;;;2.05;;
66425;SDS011;53237;46.158;14.604;2023-07-20T14:39:34;3.13;;;2.70;;
66425;SDS011;53237;46.158;14.604;2023-07-20T14:42:00;2.72;;;2.22;;
66425;SDS011;53237;46.158;14.604;2023-07-20T14:44:28;2.22;;;1.98;;